Elephant Butte, NM

12:57 AM MST on December 11, 2016 (GMT -0700)
Lakeshore Highlands | | Change Station

Elev 4500 ft 33.26 °N, 107.20 °W | Updated 1 minute ago

Clear
Clear
40.2 °F
Feels Like 40 °F
N
3.0
Wind Variable Wind from SW

Today
High -- | Low -- °F
--% Chance of Precip.
Yesterday
High -- | Low -- °F
Precip. -- in
Pressure 29.96 in
Visibility 10.0 miles
Clouds Clear
Windchill 40 °F
Dew Point 34 °F
Humidity 78%
Rainfall 0.00 in
Snow Depth Not available.
7:02 AM 5:02 PM
Waxing Gibbous, 90% visible
METAR KTCS 110753Z AUTO 10003KT 10SM CLR 04/00 A3004 RMK AO2 SLP146 T00390000
Pressure 29.96 in
Visibility 10.0 miles
Clouds Clear
Windchill 40 °F
Dew Point 34 °F
Humidity 78%
Rainfall 0.00 in
Snow Depth Not available.
7:02 AM 5:02 PM
Waxing Gibbous, 90% visible
METAR KTCS 110753Z AUTO 10003KT 10SM CLR 04/00 A3004 RMK AO2 SLP146 T00390000

10-Day Weather Forecast

Almanac

Astronomy

Dec. 11, 2016 Rise Set
Actual Time
Civil Twilight
Nautical Twilight
Astronomical Twilight
Moon
Length of Visible Light
Length of Day
Tomorrow will be .
, % of the Moon is Illuminated

Today's Extremes

State Highs State Lows

Community

WunderPhotos

Upload Photos

1,956,707 photos uploaded!

WunderBlog® & News

Nearby

Air Quality

  Air Quality AQ Index Pollutant
Not available.

Snow Depth

Station Depth Elevation

Earthquake Activity

City Distance Mag. Time & Date
Minimum magnitude displayed is 2.5.

Coastal Water Temperatures

Place Temperature

Stations

Nearby Weather Stations

Station Location Temp. Windchill Dew Point Humidity Wind Precip. Elev Updated Type
                   

Watches & Warnings

There are currently no watches in effect.